sensor_id;sensor_type;location;lat;lon;timestamp;P1;durP1;ratioP1;P2;durP2;ratioP2
63038;SDS011;49125;48.812;9.206;2022-09-12T00:00:11;22.47;;;16.63;;
63038;SDS011;49125;48.812;9.206;2022-09-12T00:02:39;18.33;;;16.43;;
63038;SDS011;49125;48.812;9.206;2022-09-12T00:05:05;17.27;;;15.57;;
63038;SDS011;49125;48.812;9.206;2022-09-12T00:07:31;20.20;;;15.90;;
63038;SDS011;49125;48.812;9.206;2022-09-12T00:09:57;18.53;;;16.63;;
63038;SDS011;49125;48.812;9.206;2022-09-12T00:12:22;19.00;;;16.70;;
63038;SDS011;49125;48.812;9.206;2022-09-12T00:14:48;17.13;;;15.30;;
63038;SDS011;49125;48.812;9.206;2022-09-12T00:17:14;17.37;;;15.67;;
63038;SDS011;49125;48.812;9.206;2022-09-12T00:19:39;16.67;;;14.87;;
63038;SDS011;49125;48.812;9.206;2022-09-12T00:22:05;19.13;;;17.20;;
63038;SDS011;49125;48.812;9.206;2022-09-12T00:24:30;21.63;;;17.33;;
63038;SDS011;49125;48.812;9.206;2022-09-12T00:26:57;18.13;;;16.23;;
63038;SDS011;49125;48.812;9.206;2022-09-12T00:29:22;18.30;;;16.37;;
63038;SDS011;49125;48.812;9.206;2022-09-12T00:31:48;18.43;;;16.67;;
63038;SDS011;49125;48.812;9.206;2022-09-12T00:34:13;17.70;;;15.83;;
63038;SDS011;49125;48.812;9.206;2022-09-12T00:36:39;17.60;;;15.90;;
63038;SDS011;49125;48.812;9.206;2022-09-12T00:39:05;18.60;;;16.17;;
63038;SDS011;49125;48.812;9.206;2022-09-12T00:41:32;16.47;;;14.83;;
63038;SDS011;49125;48.812;9.206;2022-09-12T00:44:00;16.83;;;15.13;;
63038;SDS011;49125;48.812;9.206;2022-09-12T00:49:17;19.70;;;17.27;;
63038;SDS011;49125;48.812;9.206;2022-09-12T00:54:43;18.43;;;16.53;;
63038;SDS011;49125;48.812;9.206;2022-09-12T00:57:14;19.60;;;17.37;;
63038;SDS011;49125;48.812;9.206;2022-09-12T00:59:46;19.93;;;17.87;;
63038;SDS011;49125;48.812;9.206;2022-09-12T01:02:18;20.40;;;18.20;;
63038;SDS011;49125;48.812;9.206;2022-09-12T01:04:43;24.10;;;18.03;;
63038;SDS011;49125;48.812;9.206;2022-09-12T01:07:09;19.93;;;17.40;;
63038;SDS011;49125;48.812;9.206;2022-09-12T01:09:36;23.10;;;18.80;;
63038;SDS011;49125;48.812;9.206;2022-09-12T01:12:06;24.00;;;17.27;;
63038;SDS011;49125;48.812;9.206;2022-09-12T01:14:32;19.43;;;16.90;;
63038;SDS011;49125;48.812;9.206;2022-09-12T01:17:02;19.70;;;16.33;;
63038;SDS011;49125;48.812;9.206;2022-09-12T01:25:26;17.73;;;15.93;;
63038;SDS011;49125;48.812;9.206;2022-09-12T01:38:59;21.33;;;18.47;;
63038;SDS011;49125;48.812;9.206;2022-09-12T01:47:21;22.70;;;18.57;;
63038;SDS011;49125;48.812;9.206;2022-09-12T01:49:56;19.23;;;17.17;;
63038;SDS011;49125;48.812;9.206;2022-09-12T01:56:01;19.97;;;17.30;;
63038;SDS011;49125;48.812;9.206;2022-09-12T01:58:15;19.20;;;16.77;;
63038;SDS011;49125;48.812;9.206;2022-09-12T02:00:49;20.60;;;17.17;;
63038;SDS011;49125;48.812;9.206;2022-09-12T02:04:11;19.23;;;17.30;;
63038;SDS011;49125;48.812;9.206;2022-09-12T02:06:28;20.10;;;17.37;;
63038;SDS011;49125;48.812;9.206;2022-09-12T02:09:11;19.90;;;17.53;;
63038;SDS011;49125;48.812;9.206;2022-09-12T02:11:52;19.50;;;17.00;;
63038;SDS011;49125;48.812;9.206;2022-09-12T02:14:22;23.00;;;17.80;;
63038;SDS011;49125;48.812;9.206;2022-09-12T02:16:52;20.17;;;16.77;;
63038;SDS011;49125;48.812;9.206;2022-09-12T02:19:22;21.93;;;16.57;;
63038;SDS011;49125;48.812;9.206;2022-09-12T02:21:53;16.80;;;15.10;;
63038;SDS011;49125;48.812;9.206;2022-09-12T02:24:22;20.57;;;18.27;;
63038;SDS011;49125;48.812;9.206;2022-09-12T02:26:54;20.50;;;18.30;;
63038;SDS011;49125;48.812;9.206;2022-09-12T02:29:23;22.40;;;18.23;;
63038;SDS011;49125;48.812;9.206;2022-09-12T02:31:53;21.10;;;17.47;;
63038;SDS011;49125;48.812;9.206;2022-09-12T02:39:48;24.53;;;18.87;;
63038;SDS011;49125;48.812;9.206;2022-09-12T02:42:13;20.00;;;17.90;;
63038;SDS011;49125;48.812;9.206;2022-09-12T02:44:39;22.57;;;17.37;;
63038;SDS011;49125;48.812;9.206;2022-09-12T02:47:10;19.33;;;16.63;;
63038;SDS011;49125;48.812;9.206;2022-09-12T02:50:00;20.13;;;17.73;;
63038;SDS011;49125;48.812;9.206;2022-09-12T02:52:26;25.40;;;18.93;;
63038;SDS011;49125;48.812;9.206;2022-09-12T02:54:53;21.50;;;18.17;;
63038;SDS011;49125;48.812;9.206;2022-09-12T02:57:19;19.13;;;17.23;;
63038;SDS011;49125;48.812;9.206;2022-09-12T02:59:46;23.73;;;18.67;;
63038;SDS011;49125;48.812;9.206;2022-09-12T03:26:46;26.10;;;19.73;;
63038;SDS011;49125;48.812;9.206;2022-09-12T03:29:15;23.37;;;18.73;;
63038;SDS011;49125;48.812;9.206;2022-09-12T03:31:52;20.23;;;17.73;;
63038;SDS011;49125;48.812;9.206;2022-09-12T03:34:20;23.57;;;19.43;;
63038;SDS011;49125;48.812;9.206;2022-09-12T03:36:47;24.57;;;19.20;;
63038;SDS011;49125;48.812;9.206;2022-09-12T03:39:13;26.53;;;20.07;;
63038;SDS011;49125;48.812;9.206;2022-09-12T03:41:39;22.97;;;18.27;;
63038;SDS011;49125;48.812;9.206;2022-09-12T03:44:04;21.80;;;18.40;;
63038;SDS011;49125;48.812;9.206;2022-09-12T03:46:30;25.87;;;19.00;;
63038;SDS011;49125;48.812;9.206;2022-09-12T03:48:56;24.83;;;19.27;;
63038;SDS011;49125;48.812;9.206;2022-09-12T03:51:22;19.43;;;16.90;;
63038;SDS011;49125;48.812;9.206;2022-09-12T03:53:47;21.80;;;17.63;;
63038;SDS011;49125;48.812;9.206;2022-09-12T03:56:13;25.53;;;21.23;;
63038;SDS011;49125;48.812;9.206;2022-09-12T03:58:39;20.90;;;17.80;;
63038;SDS011;49125;48.812;9.206;2022-09-12T04:01:12;24.37;;;19.37;;
63038;SDS011;49125;48.812;9.206;2022-09-12T04:03:43;23.33;;;19.17;;
63038;SDS011;49125;48.812;9.206;2022-09-12T04:06:10;23.70;;;19.30;;
63038;SDS011;49125;48.812;9.206;2022-09-12T04:08:38;27.20;;;20.00;;
63038;SDS011;49125;48.812;9.206;2022-09-12T04:11:05;22.90;;;18.00;;
63038;SDS011;49125;48.812;9.206;2022-09-12T04:13:33;22.33;;;18.97;;
63038;SDS011;49125;48.812;9.206;2022-09-12T04:16:00;27.90;;;20.63;;
63038;SDS011;49125;48.812;9.206;2022-09-12T04:18:26;21.27;;;18.90;;
63038;SDS011;49125;48.812;9.206;2022-09-12T04:20:52;23.03;;;18.80;;
63038;SDS011;49125;48.812;9.206;2022-09-12T04:23:18;27.90;;;20.50;;
63038;SDS011;49125;48.812;9.206;2022-09-12T04:25:51;24.90;;;20.20;;
63038;SDS011;49125;48.812;9.206;2022-09-12T04:28:18;28.57;;;20.33;;
63038;SDS011;49125;48.812;9.206;2022-09-12T04:30:43;27.80;;;21.53;;
63038;SDS011;49125;48.812;9.206;2022-09-12T04:33:09;27.17;;;20.00;;
63038;SDS011;49125;48.812;9.206;2022-09-12T04:35:34;27.93;;;21.23;;
63038;SDS011;49125;48.812;9.206;2022-09-12T04:38:00;24.73;;;19.60;;
63038;SDS011;49125;48.812;9.206;2022-09-12T04:40:28;26.13;;;19.83;;
63038;SDS011;49125;48.812;9.206;2022-09-12T04:42:54;26.17;;;20.13;;
63038;SDS011;49125;48.812;9.206;2022-09-12T04:45:20;24.73;;;20.10;;
63038;SDS011;49125;48.812;9.206;2022-09-12T04:47:46;24.50;;;20.03;;
63038;SDS011;49125;48.812;9.206;2022-09-12T04:50:12;24.63;;;19.90;;
63038;SDS011;49125;48.812;9.206;2022-09-12T04:52:38;27.40;;;20.20;;
63038;SDS011;49125;48.812;9.206;2022-09-12T04:55:05;30.20;;;22.03;;
63038;SDS011;49125;48.812;9.206;2022-09-12T04:57:31;32.03;;;22.17;;
63038;SDS011;49125;48.812;9.206;2022-09-12T04:59:56;25.83;;;21.23;;
63038;SDS011;49125;48.812;9.206;2022-09-12T05:02:23;30.20;;;21.20;;
63038;SDS011;49125;48.812;9.206;2022-09-12T05:04:48;23.67;;;20.37;;
63038;SDS011;49125;48.812;9.206;2022-09-12T05:07:14;28.87;;;22.47;;
63038;SDS011;49125;48.812;9.206;2022-09-12T05:09:40;33.97;;;22.87;;
63038;SDS011;49125;48.812;9.206;2022-09-12T05:12:05;27.17;;;21.93;;
63038;SDS011;49125;48.812;9.206;2022-09-12T05:14:32;31.80;;;23.63;;
63038;SDS011;49125;48.812;9.206;2022-09-12T05:16:58;26.80;;;21.83;;
63038;SDS011;49125;48.812;9.206;2022-09-12T05:19:25;29.13;;;22.37;;
63038;SDS011;49125;48.812;9.206;2022-09-12T05:21:51;30.83;;;23.27;;
63038;SDS011;49125;48.812;9.206;2022-09-12T05:24:17;32.37;;;22.57;;
63038;SDS011;49125;48.812;9.206;2022-09-12T05:26:42;28.93;;;23.20;;
63038;SDS011;49125;48.812;9.206;2022-09-12T05:29:08;26.20;;;21.10;;
63038;SDS011;49125;48.812;9.206;2022-09-12T05:31:34;27.87;;;20.73;;
63038;SDS011;49125;48.812;9.206;2022-09-12T05:33:59;32.80;;;24.07;;
63038;SDS011;49125;48.812;9.206;2022-09-12T05:36:28;32.47;;;23.77;;
63038;SDS011;49125;48.812;9.206;2022-09-12T05:38:54;30.33;;;23.53;;
63038;SDS011;49125;48.812;9.206;2022-09-12T05:41:21;29.37;;;22.40;;
63038;SDS011;49125;48.812;9.206;2022-09-12T05:43:53;29.50;;;23.03;;
63038;SDS011;49125;48.812;9.206;2022-09-12T05:46:20;31.50;;;22.60;;
63038;SDS011;49125;48.812;9.206;2022-09-12T05:48:50;26.03;;;21.00;;
63038;SDS011;49125;48.812;9.206;2022-09-12T05:51:20;24.93;;;21.27;;
63038;SDS011;49125;48.812;9.206;2022-09-12T05:53:54;21.97;;;19.77;;
63038;SDS011;49125;48.812;9.206;2022-09-12T05:56:22;22.57;;;19.63;;
63038;SDS011;49125;48.812;9.206;2022-09-12T06:01:26;20.80;;;18.60;;
63038;SDS011;49125;48.812;9.206;2022-09-12T06:03:53;22.03;;;17.50;;
63038;SDS011;49125;48.812;9.206;2022-09-12T06:06:21;19.87;;;17.83;;
63038;SDS011;49125;48.812;9.206;2022-09-12T06:08:49;18.57;;;16.63;;
63038;SDS011;49125;48.812;9.206;2022-09-12T06:11:19;18.33;;;16.50;;
63038;SDS011;49125;48.812;9.206;2022-09-12T06:13:47;18.87;;;16.73;;
63038;SDS011;49125;48.812;9.206;2022-09-12T06:16:23;18.03;;;16.30;;
63038;SDS011;49125;48.812;9.206;2022-09-12T06:18:51;17.20;;;15.40;;
63038;SDS011;49125;48.812;9.206;2022-09-12T06:21:18;16.73;;;15.00;;
63038;SDS011;49125;48.812;9.206;2022-09-12T06:23:45;18.13;;;15.00;;
63038;SDS011;49125;48.812;9.206;2022-09-12T06:26:12;17.17;;;15.50;;
63038;SDS011;49125;48.812;9.206;2022-09-12T06:28:40;15.13;;;13.63;;
63038;SDS011;49125;48.812;9.206;2022-09-12T06:31:08;16.13;;;14.53;;
63038;SDS011;49125;48.812;9.206;2022-09-12T06:33:43;17.63;;;15.83;;
63038;SDS011;49125;48.812;9.206;2022-09-12T06:36:11;16.73;;;14.83;;
63038;SDS011;49125;48.812;9.206;2022-09-12T06:38:38;16.93;;;15.17;;
63038;SDS011;49125;48.812;9.206;2022-09-12T06:41:05;16.70;;;14.90;;
63038;SDS011;49125;48.812;9.206;2022-09-12T06:43:32;16.67;;;14.17;;
63038;SDS011;49125;48.812;9.206;2022-09-12T06:45:58;15.40;;;13.90;;
63038;SDS011;49125;48.812;9.206;2022-09-12T06:48:24;15.00;;;13.50;;
63038;SDS011;49125;48.812;9.206;2022-09-12T06:51:09;14.85;;;13.43;;
63038;SDS011;49125;48.812;9.206;2022-09-12T06:53:37;17.48;;;13.15;;
63038;SDS011;49125;48.812;9.206;2022-09-12T06:58:45;17.77;;;13.95;;
63038;SDS011;49125;48.812;9.206;2022-09-12T07:01:13;15.60;;;13.25;;
63038;SDS011;49125;48.812;9.206;2022-09-12T07:03:40;17.85;;;13.73;;
63038;SDS011;49125;48.812;9.206;2022-09-12T07:06:10;15.95;;;14.43;;
63038;SDS011;49125;48.812;9.206;2022-09-12T07:08:38;14.80;;;13.30;;
63038;SDS011;49125;48.812;9.206;2022-09-12T07:11:15;15.25;;;12.27;;
63038;SDS011;49125;48.812;9.206;2022-09-12T07:13:43;18.52;;;13.85;;
63038;SDS011;49125;48.812;9.206;2022-09-12T07:16:10;14.88;;;13.52;;
63038;SDS011;49125;48.812;9.206;2022-09-12T07:18:36;14.70;;;13.43;;
63038;SDS011;49125;48.812;9.206;2022-09-12T07:21:04;14.48;;;12.73;;
63038;SDS011;49125;48.812;9.206;2022-09-12T07:23:31;14.77;;;13.20;;
63038;SDS011;49125;48.812;9.206;2022-09-12T07:25:57;13.15;;;11.95;;
63038;SDS011;49125;48.812;9.206;2022-09-12T07:28:24;15.00;;;13.45;;
63038;SDS011;49125;48.812;9.206;2022-09-12T07:30:51;13.48;;;12.27;;
63038;SDS011;49125;48.812;9.206;2022-09-12T07:33:24;13.23;;;11.98;;
63038;SDS011;49125;48.812;9.206;2022-09-12T07:35:51;13.25;;;11.95;;
63038;SDS011;49125;48.812;9.206;2022-09-12T07:38:20;13.15;;;11.82;;
63038;SDS011;49125;48.812;9.206;2022-09-12T07:40:46;13.45;;;12.05;;
63038;SDS011;49125;48.812;9.206;2022-09-12T07:43:11;12.15;;;10.57;;
63038;SDS011;49125;48.812;9.206;2022-09-12T07:45:37;12.93;;;10.90;;
63038;SDS011;49125;48.812;9.206;2022-09-12T07:48:05;13.57;;;11.20;;
63038;SDS011;49125;48.812;9.206;2022-09-12T07:50:31;12.57;;;11.18;;
63038;SDS011;49125;48.812;9.206;2022-09-12T07:52:57;12.18;;;11.07;;
63038;SDS011;49125;48.812;9.206;2022-09-12T07:55:23;11.75;;;10.63;;
63038;SDS011;49125;48.812;9.206;2022-09-12T07:57:49;12.55;;;11.38;;
63038;SDS011;49125;48.812;9.206;2022-09-12T08:00:15;12.05;;;10.85;;
63038;SDS011;49125;48.812;9.206;2022-09-12T08:02:41;11.35;;;10.32;;
63038;SDS011;49125;48.812;9.206;2022-09-12T08:05:07;12.18;;;9.80;;
63038;SDS011;49125;48.812;9.206;2022-09-12T08:07:33;11.55;;;9.82;;
63038;SDS011;49125;48.812;9.206;2022-09-12T08:09:59;13.88;;;10.50;;
63038;SDS011;49125;48.812;9.206;2022-09-12T08:12:24;10.10;;;9.18;;
63038;SDS011;49125;48.812;9.206;2022-09-12T08:14:52;10.50;;;9.40;;
63038;SDS011;49125;48.812;9.206;2022-09-12T08:17:17;9.38;;;8.57;;
63038;SDS011;49125;48.812;9.206;2022-09-12T08:19:43;10.27;;;9.10;;
63038;SDS011;49125;48.812;9.206;2022-09-12T08:22:09;10.77;;;8.85;;
63038;SDS011;49125;48.812;9.206;2022-09-12T08:24:35;9.60;;;8.25;;
63038;SDS011;49125;48.812;9.206;2022-09-12T08:27:01;9.52;;;8.52;;
63038;SDS011;49125;48.812;9.206;2022-09-12T08:29:26;7.95;;;7.25;;
63038;SDS011;49125;48.812;9.206;2022-09-12T08:31:52;8.13;;;7.32;;
63038;SDS011;49125;48.812;9.206;2022-09-12T08:34:17;7.88;;;7.15;;
63038;SDS011;49125;48.812;9.206;2022-09-12T08:36:43;8.38;;;7.13;;
63038;SDS011;49125;48.812;9.206;2022-09-12T08:39:10;7.97;;;7.05;;
63038;SDS011;49125;48.812;9.206;2022-09-12T08:41:38;7.22;;;6.53;;
63038;SDS011;49125;48.812;9.206;2022-09-12T08:44:21;7.50;;;6.22;;
63038;SDS011;49125;48.812;9.206;2022-09-12T08:52:55;7.15;;;5.25;;
63038;SDS011;49125;48.812;9.206;2022-09-12T08:55:57;5.50;;;5.00;;
63038;SDS011;49125;48.812;9.206;2022-09-12T08:58:24;6.20;;;5.22;;
63038;SDS011;49125;48.812;9.206;2022-09-12T09:01:03;4.68;;;4.28;;
63038;SDS011;49125;48.812;9.206;2022-09-12T09:17:44;4.57;;;2.50;;
63038;SDS011;49125;48.812;9.206;2022-09-12T09:23:06;3.50;;;2.58;;
63038;SDS011;49125;48.812;9.206;2022-09-12T09:28:18;2.67;;;2.47;;
63038;SDS011;49125;48.812;9.206;2022-09-12T09:30:50;2.75;;;2.55;;
63038;SDS011;49125;48.812;9.206;2022-09-12T09:33:19;4.72;;;2.80;;
63038;SDS011;49125;48.812;9.206;2022-09-12T09:35:49;3.05;;;2.80;;
63038;SDS011;49125;48.812;9.206;2022-09-12T09:41:17;4.45;;;3.17;;
63038;SDS011;49125;48.812;9.206;2022-09-12T09:43:54;2.47;;;2.30;;
63038;SDS011;49125;48.812;9.206;2022-09-12T09:46:21;3.05;;;2.75;;
63038;SDS011;49125;48.812;9.206;2022-09-12T09:48:47;3.45;;;3.05;;
63038;SDS011;49125;48.812;9.206;2022-09-12T09:51:16;3.10;;;2.90;;
63038;SDS011;49125;48.812;9.206;2022-09-12T09:54:01;3.15;;;2.90;;
63038;SDS011;49125;48.812;9.206;2022-09-12T09:56:37;3.20;;;2.90;;
63038;SDS011;49125;48.812;9.206;2022-09-12T10:01:48;4.28;;;3.17;;
63038;SDS011;49125;48.812;9.206;2022-09-12T10:04:23;5.30;;;2.88;;
63038;SDS011;49125;48.812;9.206;2022-09-12T10:06:51;2.75;;;2.55;;
63038;SDS011;49125;48.812;9.206;2022-09-12T10:09:21;3.00;;;2.70;;
63038;SDS011;49125;48.812;9.206;2022-09-12T10:11:52;3.20;;;3.00;;
63038;SDS011;49125;48.812;9.206;2022-09-12T10:14:38;3.83;;;3.17;;
63038;SDS011;49125;48.812;9.206;2022-09-12T10:19:55;2.97;;;2.70;;
63038;SDS011;49125;48.812;9.206;2022-09-12T10:22:22;3.75;;;3.38;;
63038;SDS011;49125;48.812;9.206;2022-09-12T10:24:50;3.60;;;3.30;;
63038;SDS011;49125;48.812;9.206;2022-09-12T10:27:20;2.80;;;2.60;;
63038;SDS011;49125;48.812;9.206;2022-09-12T10:32:25;4.07;;;2.80;;
63038;SDS011;49125;48.812;9.206;2022-09-12T10:34:58;3.08;;;2.88;;
63038;SDS011;49125;48.812;9.206;2022-09-12T10:37:32;3.35;;;2.85;;
63038;SDS011;49125;48.812;9.206;2022-09-12T10:40:02;6.97;;;3.03;;
63038;SDS011;49125;48.812;9.206;2022-09-12T10:45:19;2.58;;;2.38;;
63038;SDS011;49125;48.812;9.206;2022-09-12T10:47:48;2.33;;;2.13;;
63038;SDS011;49125;48.812;9.206;2022-09-12T10:50:19;2.47;;;2.28;;
63038;SDS011;49125;48.812;9.206;2022-09-12T10:52:45;2.40;;;2.20;;
63038;SDS011;49125;48.812;9.206;2022-09-12T10:55:12;2.08;;;1.80;;
63038;SDS011;49125;48.812;9.206;2022-09-12T10:57:51;2.95;;;2.30;;
63038;SDS011;49125;48.812;9.206;2022-09-12T11:00:25;2.30;;;2.10;;
63038;SDS011;49125;48.812;9.206;2022-09-12T11:08:02;2.30;;;2.10;;
63038;SDS011;49125;48.812;9.206;2022-09-12T11:10:40;2.40;;;2.10;;
63038;SDS011;49125;48.812;9.206;2022-09-12T11:18:37;1.70;;;1.60;;
63038;SDS011;49125;48.812;9.206;2022-09-12T11:21:30;4.07;;;2.10;;
63038;SDS011;49125;48.812;9.206;2022-09-12T11:24:25;2.60;;;2.38;;
63038;SDS011;49125;48.812;9.206;2022-09-12T11:27:29;1.90;;;1.70;;
63038;SDS011;49125;48.812;9.206;2022-09-12T11:30:07;2.70;;;2.22;;
63038;SDS011;49125;48.812;9.206;2022-09-12T11:40:53;1.90;;;1.60;;
63038;SDS011;49125;48.812;9.206;2022-09-12T11:43:39;2.00;;;1.45;;
63038;SDS011;49125;48.812;9.206;2022-09-12T11:46:14;2.00;;;1.80;;
63038;SDS011;49125;48.812;9.206;2022-09-12T11:51:50;4.32;;;1.50;;
63038;SDS011;49125;48.812;9.206;2022-09-12T11:59:56;2.50;;;1.88;;
63038;SDS011;49125;48.812;9.206;2022-09-12T12:02:27;1.50;;;1.40;;
63038;SDS011;49125;48.812;9.206;2022-09-12T12:07:30;2.25;;;1.60;;
63038;SDS011;49125;48.812;9.206;2022-09-12T12:10:03;1.00;;;1.00;;
63038;SDS011;49125;48.812;9.206;2022-09-12T12:12:29;1.35;;;1.25;;
63038;SDS011;49125;48.812;9.206;2022-09-12T12:14:56;2.75;;;1.30;;
63038;SDS011;49125;48.812;9.206;2022-09-12T12:17:23;1.30;;;1.20;;
63038;SDS011;49125;48.812;9.206;2022-09-12T12:20:00;1.42;;;1.30;;
63038;SDS011;49125;48.812;9.206;2022-09-12T12:22:28;1.52;;;1.42;;
63038;SDS011;49125;48.812;9.206;2022-09-12T12:38:00;1.50;;;1.40;;
63038;SDS011;49125;48.812;9.206;2022-09-12T12:40:27;2.33;;;1.40;;
63038;SDS011;49125;48.812;9.206;2022-09-12T12:43:01;1.52;;;1.30;;
63038;SDS011;49125;48.812;9.206;2022-09-12T12:47:54;1.40;;;1.30;;
63038;SDS011;49125;48.812;9.206;2022-09-12T12:50:24;1.52;;;1.40;;
63038;SDS011;49125;48.812;9.206;2022-09-12T12:52:58;2.65;;;1.30;;
63038;SDS011;49125;48.812;9.206;2022-09-12T12:58:32;3.28;;;1.35;;
63038;SDS011;49125;48.812;9.206;2022-09-12T13:01:13;1.38;;;1.30;;
63038;SDS011;49125;48.812;9.206;2022-09-12T13:03:43;2.75;;;1.60;;
63038;SDS011;49125;48.812;9.206;2022-09-12T13:06:24;1.58;;;1.48;;
63038;SDS011;49125;48.812;9.206;2022-09-12T13:09:02;1.55;;;1.30;;
63038;SDS011;49125;48.812;9.206;2022-09-12T13:11:54;2.35;;;1.52;;
63038;SDS011;49125;48.812;9.206;2022-09-12T13:14:33;1.58;;;1.48;;
63038;SDS011;49125;48.812;9.206;2022-09-12T13:17:18;1.55;;;1.45;;
63038;SDS011;49125;48.812;9.206;2022-09-12T13:20:05;1.42;;;1.33;;
63038;SDS011;49125;48.812;9.206;2022-09-12T13:22:39;2.65;;;1.40;;
63038;SDS011;49125;48.812;9.206;2022-09-12T13:27:56;1.40;;;1.30;;
63038;SDS011;49125;48.812;9.206;2022-09-12T13:30:38;1.75;;;1.30;;
63038;SDS011;49125;48.812;9.206;2022-09-12T13:33:28;1.40;;;1.30;;
63038;SDS011;49125;48.812;9.206;2022-09-12T13:36:06;1.88;;;1.50;;
63038;SDS011;49125;48.812;9.206;2022-09-12T13:44:56;2.45;;;1.40;;
63038;SDS011;49125;48.812;9.206;2022-09-12T13:47:42;1.92;;;1.50;;
63038;SDS011;49125;48.812;9.206;2022-09-12T13:50:22;2.03;;;1.30;;
63038;SDS011;49125;48.812;9.206;2022-09-12T13:52:51;2.17;;;1.30;;
63038;SDS011;49125;48.812;9.206;2022-09-12T13:58:04;2.50;;;1.40;;
63038;SDS011;49125;48.812;9.206;2022-09-12T14:01:06;2.05;;;1.65;;
63038;SDS011;49125;48.812;9.206;2022-09-12T14:06:23;2.88;;;1.45;;
63038;SDS011;49125;48.812;9.206;2022-09-12T14:08:50;1.40;;;1.30;;
63038;SDS011;49125;48.812;9.206;2022-09-12T14:11:21;2.13;;;1.50;;
63038;SDS011;49125;48.812;9.206;2022-09-12T14:13:50;1.75;;;1.35;;
63038;SDS011;49125;48.812;9.206;2022-09-12T14:16:16;1.65;;;1.55;;
63038;SDS011;49125;48.812;9.206;2022-09-12T14:18:43;1.40;;;1.30;;
63038;SDS011;49125;48.812;9.206;2022-09-12T14:21:18;1.80;;;1.50;;
63038;SDS011;49125;48.812;9.206;2022-09-12T14:23:58;1.50;;;1.40;;
63038;SDS011;49125;48.812;9.206;2022-09-12T14:26:25;2.25;;;1.33;;
63038;SDS011;49125;48.812;9.206;2022-09-12T14:28:54;1.90;;;1.40;;
63038;SDS011;49125;48.812;9.206;2022-09-12T14:31:23;1.80;;;1.58;;
63038;SDS011;49125;48.812;9.206;2022-09-12T14:34:07;1.48;;;1.38;;
63038;SDS011;49125;48.812;9.206;2022-09-12T14:42:10;1.17;;;1.08;;
63038;SDS011;49125;48.812;9.206;2022-09-12T14:44:40;1.13;;;1.02;;
63038;SDS011;49125;48.812;9.206;2022-09-12T14:47:20;1.42;;;1.20;;
63038;SDS011;49125;48.812;9.206;2022-09-12T14:49:48;1.40;;;1.30;;
63038;SDS011;49125;48.812;9.206;2022-09-12T14:55:03;2.15;;;1.20;;
63038;SDS011;49125;48.812;9.206;2022-09-12T14:57:45;1.30;;;1.20;;
63038;SDS011;49125;48.812;9.206;2022-09-12T15:02:37;1.33;;;1.23;;
63038;SDS011;49125;48.812;9.206;2022-09-12T15:07:33;1.30;;;1.20;;
63038;SDS011;49125;48.812;9.206;2022-09-12T15:10:16;1.35;;;1.25;;
63038;SDS011;49125;48.812;9.206;2022-09-12T15:12:46;2.15;;;1.40;;
63038;SDS011;49125;48.812;9.206;2022-09-12T15:15:13;1.52;;;1.42;;
63038;SDS011;49125;48.812;9.206;2022-09-12T15:17:44;2.30;;;1.00;;
63038;SDS011;49125;48.812;9.206;2022-09-12T15:20:11;2.17;;;1.38;;
63038;SDS011;49125;48.812;9.206;2022-09-12T15:22:38;1.30;;;1.20;;
63038;SDS011;49125;48.812;9.206;2022-09-12T15:25:04;1.40;;;1.20;;
63038;SDS011;49125;48.812;9.206;2022-09-12T15:27:30;1.58;;;1.48;;
63038;SDS011;49125;48.812;9.206;2022-09-12T15:29:56;1.50;;;1.30;;
63038;SDS011;49125;48.812;9.206;2022-09-12T15:32:25;1.30;;;1.20;;
63038;SDS011;49125;48.812;9.206;2022-09-12T15:34:54;1.80;;;1.35;;
63038;SDS011;49125;48.812;9.206;2022-09-12T15:37:20;2.00;;;1.23;;
63038;SDS011;49125;48.812;9.206;2022-09-12T15:39:48;1.58;;;1.48;;
63038;SDS011;49125;48.812;9.206;2022-09-12T15:42:14;3.17;;;1.40;;
63038;SDS011;49125;48.812;9.206;2022-09-12T15:44:41;1.45;;;1.30;;
63038;SDS011;49125;48.812;9.206;2022-09-12T15:47:08;1.58;;;1.10;;
63038;SDS011;49125;48.812;9.206;2022-09-12T15:49:36;1.45;;;1.30;;
63038;SDS011;49125;48.812;9.206;2022-09-12T15:52:02;1.48;;;1.38;;
63038;SDS011;49125;48.812;9.206;2022-09-12T15:54:27;3.00;;;1.40;;
63038;SDS011;49125;48.812;9.206;2022-09-12T15:56:53;1.48;;;1.27;;
63038;SDS011;49125;48.812;9.206;2022-09-12T15:59:19;1.58;;;1.40;;
63038;SDS011;49125;48.812;9.206;2022-09-12T16:01:44;2.50;;;1.63;;
63038;SDS011;49125;48.812;9.206;2022-09-12T16:04:21;2.20;;;1.70;;
63038;SDS011;49125;48.812;9.206;2022-09-12T16:06:49;1.75;;;1.52;;
63038;SDS011;49125;48.812;9.206;2022-09-12T16:09:15;2.47;;;1.70;;
63038;SDS011;49125;48.812;9.206;2022-09-12T16:11:41;1.70;;;1.30;;
63038;SDS011;49125;48.812;9.206;2022-09-12T16:14:06;1.70;;;1.60;;
63038;SDS011;49125;48.812;9.206;2022-09-12T16:16:32;2.03;;;1.63;;
63038;SDS011;49125;48.812;9.206;2022-09-12T16:18:59;3.30;;;2.00;;
63038;SDS011;49125;48.812;9.206;2022-09-12T16:21:24;1.95;;;1.55;;
63038;SDS011;49125;48.812;9.206;2022-09-12T16:23:50;2.15;;;1.50;;
63038;SDS011;49125;48.812;9.206;2022-09-12T16:26:16;1.85;;;1.75;;
63038;SDS011;49125;48.812;9.206;2022-09-12T16:28:42;2.15;;;1.80;;
63038;SDS011;49125;48.812;9.206;2022-09-12T16:31:09;1.52;;;1.30;;
63038;SDS011;49125;48.812;9.206;2022-09-12T16:33:36;1.45;;;1.30;;
63038;SDS011;49125;48.812;9.206;2022-09-12T16:36:04;1.63;;;1.52;;
63038;SDS011;49125;48.812;9.206;2022-09-12T16:38:34;1.60;;;1.50;;
63038;SDS011;49125;48.812;9.206;2022-09-12T16:41:07;2.40;;;1.60;;
63038;SDS011;49125;48.812;9.206;2022-09-12T16:43:33;1.77;;;1.67;;
63038;SDS011;49125;48.812;9.206;2022-09-12T16:46:01;2.55;;;1.50;;
63038;SDS011;49125;48.812;9.206;2022-09-12T16:48:35;2.45;;;1.70;;
63038;SDS011;49125;48.812;9.206;2022-09-12T16:51:03;1.67;;;1.38;;
63038;SDS011;49125;48.812;9.206;2022-09-12T16:53:30;1.58;;;1.48;;
63038;SDS011;49125;48.812;9.206;2022-09-12T16:55:57;1.60;;;1.50;;
63038;SDS011;49125;48.812;9.206;2022-09-12T16:58:22;1.98;;;1.70;;
63038;SDS011;49125;48.812;9.206;2022-09-12T17:00:48;1.77;;;1.60;;
63038;SDS011;49125;48.812;9.206;2022-09-12T17:03:14;1.83;;;1.60;;
63038;SDS011;49125;48.812;9.206;2022-09-12T17:05:41;1.63;;;1.50;;
63038;SDS011;49125;48.812;9.206;2022-09-12T17:08:07;1.65;;;1.50;;
63038;SDS011;49125;48.812;9.206;2022-09-12T17:10:33;2.38;;;1.75;;
63038;SDS011;49125;48.812;9.206;2022-09-12T17:13:00;3.53;;;1.90;;
63038;SDS011;49125;48.812;9.206;2022-09-12T17:15:26;2.55;;;1.92;;
63038;SDS011;49125;48.812;9.206;2022-09-12T17:17:52;4.28;;;2.33;;
63038;SDS011;49125;48.812;9.206;2022-09-12T17:20:17;6.22;;;3.50;;
63038;SDS011;49125;48.812;9.206;2022-09-12T17:22:43;5.07;;;3.40;;
63038;SDS011;49125;48.812;9.206;2022-09-12T17:25:11;5.07;;;3.35;;
63038;SDS011;49125;48.812;9.206;2022-09-12T17:27:37;9.05;;;3.53;;
63038;SDS011;49125;48.812;9.206;2022-09-12T17:30:02;4.10;;;2.70;;
63038;SDS011;49125;48.812;9.206;2022-09-12T17:32:28;4.45;;;3.08;;
63038;SDS011;49125;48.812;9.206;2022-09-12T17:34:54;5.88;;;3.13;;
63038;SDS011;49125;48.812;9.206;2022-09-12T17:37:19;4.63;;;3.20;;
63038;SDS011;49125;48.812;9.206;2022-09-12T17:39:45;5.93;;;3.03;;
63038;SDS011;49125;48.812;9.206;2022-09-12T17:42:11;4.32;;;3.00;;
63038;SDS011;49125;48.812;9.206;2022-09-12T17:44:37;3.95;;;2.58;;
63038;SDS011;49125;48.812;9.206;2022-09-12T17:47:03;12.45;;;3.05;;
63038;SDS011;49125;48.812;9.206;2022-09-12T17:49:28;2.80;;;2.25;;
63038;SDS011;49125;48.812;9.206;2022-09-12T17:54:29;4.72;;;2.17;;